sensor_id;sensor_type;location;lat;lon;timestamp;pressure;altitude;pressure_sealevel;temperature;humidity
21742;BME280;11033;47.490;11.116;2023-04-27T00:01:50;93141.97;;;8.03;74.87
21742;BME280;11033;47.490;11.116;2023-04-27T00:04:15;93132.56;;;7.86;75.73
21742;BME280;11033;47.490;11.116;2023-04-27T00:06:41;93127.69;;;7.83;76.11
21742;BME280;11033;47.490;11.116;2023-04-27T00:09:07;93122.44;;;7.83;76.29
21742;BME280;11033;47.490;11.116;2023-04-27T00:11:32;93127.06;;;7.73;77.11
21742;BME280;11033;47.490;11.116;2023-04-27T00:13:58;93121.81;;;7.73;76.92
21742;BME280;11033;47.490;11.116;2023-04-27T00:16:24;93123.44;;;7.74;76.84
21742;BME280;11033;47.490;11.116;2023-04-27T00:18:49;93116.03;;;7.85;76.27
21742;BME280;11033;47.490;11.116;2023-04-27T00:21:15;93119.13;;;7.89;76.40
21742;BME280;11033;47.490;11.116;2023-04-27T00:23:40;93117.19;;;7.83;76.75
21742;BME280;11033;47.490;11.116;2023-04-27T00:26:05;93110.63;;;7.79;77.33
21742;BME280;11033;47.490;11.116;2023-04-27T00:28:30;93115.88;;;7.79;76.84
21742;BME280;11033;47.490;11.116;2023-04-27T00:30:56;93111.59;;;7.86;76.24
21742;BME280;11033;47.490;11.116;2023-04-27T00:33:21;93107.72;;;7.74;76.99
21742;BME280;11033;47.490;11.116;2023-04-27T00:35:46;93107.72;;;7.74;77.43
21742;BME280;11033;47.490;11.116;2023-04-27T00:38:12;93100.25;;;7.62;77.57
21742;BME280;11033;47.490;11.116;2023-04-27T00:40:38;93107.03;;;7.80;76.78
21742;BME280;11033;47.490;11.116;2023-04-27T00:43:03;93093.53;;;7.91;75.52
21742;BME280;11033;47.490;11.116;2023-04-27T00:45:28;93102.19;;;7.69;76.43
21742;BME280;11033;47.490;11.116;2023-04-27T00:47:54;93095.59;;;7.73;77.00
21742;BME280;11033;47.490;11.116;2023-04-27T00:50:26;93099.03;;;7.73;77.02
21742;BME280;11033;47.490;11.116;2023-04-27T00:52:53;93099.44;;;7.62;77.85
21742;BME280;11033;47.490;11.116;2023-04-27T00:55:18;93096.34;;;7.58;78.42
21742;BME280;11033;47.490;11.116;2023-04-27T00:57:44;93099.81;;;7.82;76.98
21742;BME280;11033;47.490;11.116;2023-04-27T01:00:10;93097.00;;;7.60;78.63
21742;BME280;11033;47.490;11.116;2023-04-27T01:02:35;93095.53;;;7.58;78.82
21742;BME280;11033;47.490;11.116;2023-04-27T01:05:01;93094.03;;;7.63;78.90
21742;BME280;11033;47.490;11.116;2023-04-27T01:07:28;93089.34;;;7.82;76.46
21742;BME280;11033;47.490;11.116;2023-04-27T01:09:53;93103.22;;;7.59;78.01
21742;BME280;11033;47.490;11.116;2023-04-27T01:12:18;93089.78;;;7.62;77.15
21742;BME280;11033;47.490;11.116;2023-04-27T01:14:44;93091.53;;;7.70;77.55
21742;BME280;11033;47.490;11.116;2023-04-27T01:17:09;93097.50;;;7.56;77.90
21742;BME280;11033;47.490;11.116;2023-04-27T01:19:35;93098.88;;;7.75;77.12
21742;BME280;11033;47.490;11.116;2023-04-27T01:22:01;93094.59;;;7.74;77.46
21742;BME280;11033;47.490;11.116;2023-04-27T01:24:27;93096.06;;;7.76;77.77
21742;BME280;11033;47.490;11.116;2023-04-27T01:26:53;93103.44;;;7.81;76.65
21742;BME280;11033;47.490;11.116;2023-04-27T01:29:19;93097.22;;;7.82;76.11
21742;BME280;11033;47.490;11.116;2023-04-27T01:31:45;93098.19;;;7.81;76.77
21742;BME280;11033;47.490;11.116;2023-04-27T01:34:10;93101.72;;;7.65;77.52
21742;BME280;11033;47.490;11.116;2023-04-27T01:36:36;93095.94;;;7.70;75.68
21742;BME280;11033;47.490;11.116;2023-04-27T01:39:01;93101.94;;;7.55;78.07
21742;BME280;11033;47.490;11.116;2023-04-27T01:41:28;93106.91;;;7.73;76.78
21742;BME280;11033;47.490;11.116;2023-04-27T01:43:53;93109.63;;;7.80;75.44
21742;BME280;11033;47.490;11.116;2023-04-27T01:46:18;93102.75;;;7.79;76.55
21742;BME280;11033;47.490;11.116;2023-04-27T01:48:44;93097.69;;;7.54;78.66
21742;BME280;11033;47.490;11.116;2023-04-27T01:51:10;93109.34;;;7.75;78.08
21742;BME280;11033;47.490;11.116;2023-04-27T01:53:35;93108.69;;;7.81;76.60
21742;BME280;11033;47.490;11.116;2023-04-27T01:56:00;93106.47;;;7.61;77.46
21742;BME280;11033;47.490;11.116;2023-04-27T01:58:26;93112.88;;;7.59;77.90
21742;BME280;11033;47.490;11.116;2023-04-27T02:00:51;93110.75;;;7.62;77.66
21742;BME280;11033;47.490;11.116;2023-04-27T02:03:17;93119.00;;;7.51;78.53
21742;BME280;11033;47.490;11.116;2023-04-27T02:05:42;93119.34;;;7.48;79.15
21742;BME280;11033;47.490;11.116;2023-04-27T02:08:08;93127.63;;;7.60;77.91
21742;BME280;11033;47.490;11.116;2023-04-27T02:10:34;93120.06;;;7.65;78.35
21742;BME280;11033;47.490;11.116;2023-04-27T02:13:00;93108.94;;;7.63;78.62
21742;BME280;11033;47.490;11.116;2023-04-27T02:15:25;93109.78;;;7.55;79.60
21742;BME280;11033;47.490;11.116;2023-04-27T02:17:50;93114.94;;;7.72;77.08
21742;BME280;11033;47.490;11.116;2023-04-27T02:20:15;93111.69;;;7.70;78.31
21742;BME280;11033;47.490;11.116;2023-04-27T02:22:41;93111.31;;;7.73;79.10
21742;BME280;11033;47.490;11.116;2023-04-27T02:25:10;93114.59;;;7.75;78.65
21742;BME280;11033;47.490;11.116;2023-04-27T02:27:39;93114.66;;;7.67;79.33
21742;BME280;11033;47.490;11.116;2023-04-27T02:30:08;93132.19;;;7.66;79.17
21742;BME280;11033;47.490;11.116;2023-04-27T02:32:34;93140.97;;;7.73;80.07
21742;BME280;11033;47.490;11.116;2023-04-27T02:35:00;93142.59;;;7.82;80.49
21742;BME280;11033;47.490;11.116;2023-04-27T02:37:26;93148.38;;;7.70;81.09
21742;BME280;11033;47.490;11.116;2023-04-27T02:39:52;93158.44;;;7.58;82.57
21742;BME280;11033;47.490;11.116;2023-04-27T02:42:17;93152.94;;;7.76;80.98
21742;BME280;11033;47.490;11.116;2023-04-27T02:44:42;93144.72;;;7.79;81.12
21742;BME280;11033;47.490;11.116;2023-04-27T02:47:08;93154.09;;;7.73;82.03
21742;BME280;11033;47.490;11.116;2023-04-27T02:49:34;93158.91;;;7.61;83.91
21742;BME280;11033;47.490;11.116;2023-04-27T02:51:59;93160.59;;;7.54;83.75
21742;BME280;11033;47.490;11.116;2023-04-27T02:54:24;93162.25;;;7.78;80.61
21742;BME280;11033;47.490;11.116;2023-04-27T02:56:50;93172.34;;;7.58;84.40
21742;BME280;11033;47.490;11.116;2023-04-27T02:59:15;93174.47;;;7.63;84.40
21742;BME280;11033;47.490;11.116;2023-04-27T03:01:40;93167.31;;;7.49;85.51
21742;BME280;11033;47.490;11.116;2023-04-27T03:04:06;93170.97;;;7.71;83.34
21742;BME280;11033;47.490;11.116;2023-04-27T03:06:31;93168.34;;;7.71;84.49
21742;BME280;11033;47.490;11.116;2023-04-27T03:08:56;93164.41;;;7.75;83.49
21742;BME280;11033;47.490;11.116;2023-04-27T03:11:22;93163.53;;;7.51;86.40
21742;BME280;11033;47.490;11.116;2023-04-27T03:13:47;93160.88;;;7.59;85.19
21742;BME280;11033;47.490;11.116;2023-04-27T03:16:12;93157.41;;;7.36;87.00
21742;BME280;11033;47.490;11.116;2023-04-27T03:18:37;93158.22;;;7.68;85.19
21742;BME280;11033;47.490;11.116;2023-04-27T03:21:07;93163.28;;;7.38;87.39
21742;BME280;11033;47.490;11.116;2023-04-27T03:23:33;93159.75;;;7.15;89.86
21742;BME280;11033;47.490;11.116;2023-04-27T03:25:58;93157.47;;;7.20;90.13
21742;BME280;11033;47.490;11.116;2023-04-27T03:28:23;93166.88;;;7.37;89.27
21742;BME280;11033;47.490;11.116;2023-04-27T03:30:49;93164.22;;;7.45;88.45
21742;BME280;11033;47.490;11.116;2023-04-27T03:33:14;93165.81;;;7.54;86.56
21742;BME280;11033;47.490;11.116;2023-04-27T03:35:40;93163.25;;;7.46;87.34
21742;BME280;11033;47.490;11.116;2023-04-27T03:38:06;93170.00;;;7.32;88.70
21742;BME280;11033;47.490;11.116;2023-04-27T03:40:31;93171.00;;;7.31;89.55
21742;BME280;11033;47.490;11.116;2023-04-27T03:42:56;93175.31;;;7.08;91.13
21742;BME280;11033;47.490;11.116;2023-04-27T03:45:21;93178.41;;;7.20;90.54
21742;BME280;11033;47.490;11.116;2023-04-27T03:47:47;93183.25;;;7.39;89.75
21742;BME280;11033;47.490;11.116;2023-04-27T03:50:12;93182.38;;;7.55;86.77
21742;BME280;11033;47.490;11.116;2023-04-27T03:52:37;93176.38;;;7.38;89.32
21742;BME280;11033;47.490;11.116;2023-04-27T03:55:03;93182.03;;;7.58;87.87
21742;BME280;11033;47.490;11.116;2023-04-27T03:57:29;93184.94;;;7.24;90.55
21742;BME280;11033;47.490;11.116;2023-04-27T03:59:56;93187.25;;;7.19;91.02
21742;BME280;11033;47.490;11.116;2023-04-27T04:02:21;93192.44;;;7.35;89.89
21742;BME280;11033;47.490;11.116;2023-04-27T04:04:47;93195.56;;;7.30;91.15
21742;BME280;11033;47.490;11.116;2023-04-27T04:07:12;93199.63;;;7.41;90.04
21742;BME280;11033;47.490;11.116;2023-04-27T04:09:37;93202.25;;;7.41;90.02
21742;BME280;11033;47.490;11.116;2023-04-27T04:12:03;93203.03;;;7.50;89.74
21742;BME280;11033;47.490;11.116;2023-04-27T04:14:28;93200.19;;;7.59;88.16
21742;BME280;11033;47.490;11.116;2023-04-27T04:16:54;93210.94;;;7.34;90.79
21742;BME280;11033;47.490;11.116;2023-04-27T04:19:19;93221.56;;;7.40;90.63
21742;BME280;11033;47.490;11.116;2023-04-27T04:21:44;93216.88;;;7.27;91.84
21742;BME280;11033;47.490;11.116;2023-04-27T04:24:09;93218.00;;;7.33;90.73
21742;BME280;11033;47.490;11.116;2023-04-27T04:26:35;93224.50;;;7.45;89.47
21742;BME280;11033;47.490;11.116;2023-04-27T04:29:01;93238.09;;;7.41;90.42
21742;BME280;11033;47.490;11.116;2023-04-27T04:31:26;93243.81;;;7.52;90.12
21742;BME280;11033;47.490;11.116;2023-04-27T04:33:52;93241.50;;;7.57;89.22
21742;BME280;11033;47.490;11.116;2023-04-27T04:36:17;93246.59;;;7.51;89.41
21742;BME280;11033;47.490;11.116;2023-04-27T04:38:43;93245.19;;;7.32;91.28
21742;BME280;11033;47.490;11.116;2023-04-27T04:41:08;93238.97;;;7.25;92.26
21742;BME280;11033;47.490;11.116;2023-04-27T04:43:34;93242.19;;;7.43;91.19
21742;BME280;11033;47.490;11.116;2023-04-27T04:45:59;93238.72;;;7.51;90.73
21742;BME280;11033;47.490;11.116;2023-04-27T04:48:25;93237.63;;;7.37;92.16
21742;BME280;11033;47.490;11.116;2023-04-27T04:50:50;93230.06;;;7.50;90.98
21742;BME280;11033;47.490;11.116;2023-04-27T04:53:16;93229.69;;;7.61;90.23
21742;BME280;11033;47.490;11.116;2023-04-27T04:55:41;93239.31;;;7.69;89.96
21742;BME280;11033;47.490;11.116;2023-04-27T04:58:06;93244.78;;;7.51;91.24
21742;BME280;11033;47.490;11.116;2023-04-27T05:00:31;93246.47;;;7.36;92.25
21742;BME280;11033;47.490;11.116;2023-04-27T05:02:57;93248.88;;;7.54;91.14
21742;BME280;11033;47.490;11.116;2023-04-27T05:05:22;93249.16;;;7.67;89.64
21742;BME280;11033;47.490;11.116;2023-04-27T05:07:47;93249.72;;;7.46;91.49
21742;BME280;11033;47.490;11.116;2023-04-27T05:10:13;93255.28;;;7.51;91.86
21742;BME280;11033;47.490;11.116;2023-04-27T05:12:38;93254.16;;;7.38;92.60
21742;BME280;11033;47.490;11.116;2023-04-27T05:15:04;93266.84;;;7.65;89.83
21742;BME280;11033;47.490;11.116;2023-04-27T05:17:29;93270.31;;;7.57;91.49
21742;BME280;11033;47.490;11.116;2023-04-27T05:19:55;93266.09;;;7.48;91.91
21742;BME280;11033;47.490;11.116;2023-04-27T05:22:20;93271.69;;;7.37;93.25
21742;BME280;11033;47.490;11.116;2023-04-27T05:24:45;93269.06;;;7.37;93.83
21742;BME280;11033;47.490;11.116;2023-04-27T05:27:12;93268.06;;;7.46;92.43
21742;BME280;11033;47.490;11.116;2023-04-27T05:29:38;93280.78;;;7.66;92.24
21742;BME280;11033;47.490;11.116;2023-04-27T05:32:04;93287.00;;;7.64;91.16
21742;BME280;11033;47.490;11.116;2023-04-27T05:34:30;93287.00;;;7.64;92.48
21742;BME280;11033;47.490;11.116;2023-04-27T05:36:55;93282.09;;;7.61;91.68
21742;BME280;11033;47.490;11.116;2023-04-27T05:39:20;93275.88;;;7.62;91.08
21742;BME280;11033;47.490;11.116;2023-04-27T05:41:46;93274.19;;;7.78;90.31
21742;BME280;11033;47.490;11.116;2023-04-27T05:44:11;93265.22;;;7.64;90.38
21742;BME280;11033;47.490;11.116;2023-04-27T05:46:36;93274.81;;;7.80;90.06
21742;BME280;11033;47.490;11.116;2023-04-27T05:49:02;93277.78;;;7.85;90.07
21742;BME280;11033;47.490;11.116;2023-04-27T05:51:27;93271.19;;;7.97;89.56
21742;BME280;11033;47.490;11.116;2023-04-27T05:53:53;93268.50;;;8.05;88.54
21742;BME280;11033;47.490;11.116;2023-04-27T05:56:20;93272.13;;;8.04;89.13
21742;BME280;11033;47.490;11.116;2023-04-27T05:58:45;93272.94;;;8.05;89.35
21742;BME280;11033;47.490;11.116;2023-04-27T06:01:11;93274.56;;;8.06;88.66
21742;BME280;11033;47.490;11.116;2023-04-27T06:03:36;93273.53;;;8.15;87.71
21742;BME280;11033;47.490;11.116;2023-04-27T06:06:02;93278.06;;;8.29;86.97
21742;BME280;11033;47.490;11.116;2023-04-27T06:08:27;93270.59;;;8.49;86.22
21742;BME280;11033;47.490;11.116;2023-04-27T06:10:53;93276.22;;;8.38;86.65
21742;BME280;11033;47.490;11.116;2023-04-27T06:13:19;93279.03;;;8.36;87.60
21742;BME280;11033;47.490;11.116;2023-04-27T06:15:45;93272.44;;;8.40;88.24
21742;BME280;11033;47.490;11.116;2023-04-27T06:18:11;93277.69;;;8.40;87.04
21742;BME280;11033;47.490;11.116;2023-04-27T06:20:36;93278.75;;;8.23;87.20
21742;BME280;11033;47.490;11.116;2023-04-27T06:23:02;93278.47;;;8.49;87.35
21742;BME280;11033;47.490;11.116;2023-04-27T06:25:27;93279.97;;;8.43;87.55
21742;BME280;11033;47.490;11.116;2023-04-27T06:27:56;93274.47;;;8.61;85.70
21742;BME280;11033;47.490;11.116;2023-04-27T06:30:23;93277.16;;;8.45;85.46
21742;BME280;11033;47.490;11.116;2023-04-27T06:32:49;93278.44;;;8.57;82.67
21742;BME280;11033;47.490;11.116;2023-04-27T06:35:15;93286.69;;;8.46;83.28
21742;BME280;11033;47.490;11.116;2023-04-27T06:37:40;93283.09;;;8.47;83.22
21742;BME280;11033;47.490;11.116;2023-04-27T06:40:06;93284.09;;;8.38;83.15
21742;BME280;11033;47.490;11.116;2023-04-27T06:42:32;93288.47;;;8.53;82.19
21742;BME280;11033;47.490;11.116;2023-04-27T06:44:58;93282.75;;;8.42;82.30
21742;BME280;11033;47.490;11.116;2023-04-27T06:47:23;93279.59;;;8.54;83.21
21742;BME280;11033;47.490;11.116;2023-04-27T06:49:48;93287.59;;;8.84;83.15
21742;BME280;11033;47.490;11.116;2023-04-27T06:52:14;93284.25;;;8.90;82.47
21742;BME280;11033;47.490;11.116;2023-04-27T06:54:39;93282.00;;;8.64;82.28
21742;BME280;11033;47.490;11.116;2023-04-27T06:57:04;93285.13;;;8.82;81.50
21742;BME280;11033;47.490;11.116;2023-04-27T06:59:30;93280.97;;;9.11;81.92
21742;BME280;11033;47.490;11.116;2023-04-27T07:01:56;93284.56;;;9.10;80.35
21742;BME280;11033;47.490;11.116;2023-04-27T07:04:21;93294.50;;;9.00;80.18
21742;BME280;11033;47.490;11.116;2023-04-27T07:06:46;93291.72;;;8.78;81.42
21742;BME280;11033;47.490;11.116;2023-04-27T07:09:11;93294.00;;;8.81;80.76
21742;BME280;11033;47.490;11.116;2023-04-27T07:11:37;93291.53;;;9.03;80.31
21742;BME280;11033;47.490;11.116;2023-04-27T07:14:02;93296.84;;;9.17;79.78
21742;BME280;11033;47.490;11.116;2023-04-27T07:16:27;93299.06;;;9.06;79.57
21742;BME280;11033;47.490;11.116;2023-04-27T07:18:53;93299.06;;;9.06;79.90
21742;BME280;11033;47.490;11.116;2023-04-27T07:21:18;93289.16;;;9.16;78.74
21742;BME280;11033;47.490;11.116;2023-04-27T07:23:43;93286.91;;;9.28;78.58
21742;BME280;11033;47.490;11.116;2023-04-27T07:26:10;93290.28;;;9.36;79.41
21742;BME280;11033;47.490;11.116;2023-04-27T07:28:36;93287.94;;;9.41;77.97
21742;BME280;11033;47.490;11.116;2023-04-27T07:31:05;93286.44;;;9.24;77.52
21742;BME280;11033;47.490;11.116;2023-04-27T07:33:32;93286.28;;;9.40;78.76
21742;BME280;11033;47.490;11.116;2023-04-27T07:35:57;93275.34;;;9.66;77.60
21742;BME280;11033;47.490;11.116;2023-04-27T07:38:23;93283.44;;;9.94;76.28
21742;BME280;11033;47.490;11.116;2023-04-27T07:40:49;93285.22;;;10.08;76.18
21742;BME280;11033;47.490;11.116;2023-04-27T07:43:15;93281.97;;;10.21;76.93
21742;BME280;11033;47.490;11.116;2023-04-27T07:45:41;93273.97;;;10.14;74.58
21742;BME280;11033;47.490;11.116;2023-04-27T07:48:08;93275.53;;;9.94;74.86
21742;BME280;11033;47.490;11.116;2023-04-27T07:50:33;93276.91;;;9.90;76.45
21742;BME280;11033;47.490;11.116;2023-04-27T07:52:59;93275.25;;;9.74;76.03
21742;BME280;11033;47.490;11.116;2023-04-27T07:55:24;93276.78;;;10.13;75.22
21742;BME280;11033;47.490;11.116;2023-04-27T07:57:54;93281.03;;;10.29;74.62
21742;BME280;11033;47.490;11.116;2023-04-27T08:00:20;93282.13;;;10.20;75.01
21742;BME280;11033;47.490;11.116;2023-04-27T08:02:46;93293.03;;;10.16;74.37
21742;BME280;11033;47.490;11.116;2023-04-27T08:05:11;93291.50;;;9.78;75.33
21742;BME280;11033;47.490;11.116;2023-04-27T08:07:37;93296.41;;;9.81;74.77
21742;BME280;11033;47.490;11.116;2023-04-27T08:10:02;93294.16;;;9.78;74.76
21742;BME280;11033;47.490;11.116;2023-04-27T08:12:28;93291.50;;;10.22;74.34
21742;BME280;11033;47.490;11.116;2023-04-27T08:14:53;93297.75;;;10.06;74.65
21742;BME280;11033;47.490;11.116;2023-04-27T08:17:19;93298.66;;;10.43;72.40
21742;BME280;11033;47.490;11.116;2023-04-27T08:19:46;93296.06;;;10.64;71.95
21742;BME280;11033;47.490;11.116;2023-04-27T08:22:11;93297.69;;;10.87;69.52
21742;BME280;11033;47.490;11.116;2023-04-27T08:24:36;93296.09;;;11.56;69.48
21742;BME280;11033;47.490;11.116;2023-04-27T08:27:02;93286.97;;;11.59;69.68
21742;BME280;11033;47.490;11.116;2023-04-27T08:29:30;93293.88;;;11.32;69.29
21742;BME280;11033;47.490;11.116;2023-04-27T08:31:57;93290.34;;;11.03;70.96
21742;BME280;11033;47.490;11.116;2023-04-27T08:34:23;93290.91;;;10.99;70.36
21742;BME280;11033;47.490;11.116;2023-04-27T08:36:48;93290.31;;;11.18;70.42
21742;BME280;11033;47.490;11.116;2023-04-27T08:39:14;93284.53;;;11.29;71.89
21742;BME280;11033;47.490;11.116;2023-04-27T08:41:41;93294.69;;;11.32;70.63
21742;BME280;11033;47.490;11.116;2023-04-27T08:44:07;93291.63;;;11.07;71.18
21742;BME280;11033;47.490;11.116;2023-04-27T08:46:32;93284.03;;;10.76;72.40
21742;BME280;11033;47.490;11.116;2023-04-27T08:48:58;93294.63;;;10.83;73.67
21742;BME280;11033;47.490;11.116;2023-04-27T08:51:23;93294.94;;;10.73;73.99
21742;BME280;11033;47.490;11.116;2023-04-27T08:53:55;93292.41;;;10.65;72.62
21742;BME280;11033;47.490;11.116;2023-04-27T08:56:23;93297.56;;;10.73;71.73
21742;BME280;11033;47.490;11.116;2023-04-27T08:58:52;93294.44;;;10.85;72.41
21742;BME280;11033;47.490;11.116;2023-04-27T09:01:18;93291.44;;;10.88;72.21
21742;BME280;11033;47.490;11.116;2023-04-27T09:03:44;93287.91;;;11.23;72.23
21742;BME280;11033;47.490;11.116;2023-04-27T09:06:13;93290.72;;;11.00;71.59
21742;BME280;11033;47.490;11.116;2023-04-27T09:08:47;93290.28;;;10.97;73.07
21742;BME280;11033;47.490;11.116;2023-04-27T09:11:27;93292.16;;;11.46;71.71
21742;BME280;11033;47.490;11.116;2023-04-27T09:13:53;93284.75;;;11.62;72.37
21742;BME280;11033;47.490;11.116;2023-04-27T09:16:23;93286.81;;;11.67;72.90
21742;BME280;11033;47.490;11.116;2023-04-27T09:18:49;93286.38;;;11.63;71.25
21742;BME280;11033;47.490;11.116;2023-04-27T09:21:25;93286.38;;;11.63;71.48
21742;BME280;11033;47.490;11.116;2023-04-27T09:23:52;93279.34;;;11.98;71.91
21742;BME280;11033;47.490;11.116;2023-04-27T09:26:22;93282.94;;;11.84;70.40
21742;BME280;11033;47.490;11.116;2023-04-27T09:28:49;93277.78;;;11.76;70.42
21742;BME280;11033;47.490;11.116;2023-04-27T09:31:15;93287.31;;;12.05;70.25
21742;BME280;11033;47.490;11.116;2023-04-27T09:33:43;93281.22;;;12.46;70.17
21742;BME280;11033;47.490;11.116;2023-04-27T09:36:08;93273.81;;;12.89;70.44
21742;BME280;11033;47.490;11.116;2023-04-27T09:38:34;93274.78;;;12.75;71.27
21742;BME280;11033;47.490;11.116;2023-04-27T09:41:00;93272.75;;;12.77;71.10
21742;BME280;11033;47.490;11.116;2023-04-27T09:43:26;93263.72;;;13.25;70.28
21742;BME280;11033;47.490;11.116;2023-04-27T09:45:53;93263.50;;;13.47;68.88
21742;BME280;11033;47.490;11.116;2023-04-27T09:48:20;93255.22;;;14.34;65.66
21742;BME280;11033;47.490;11.116;2023-04-27T09:50:48;93253.38;;;14.28;65.32
21742;BME280;11033;47.490;11.116;2023-04-27T09:53:16;93258.50;;;14.23;66.14
21742;BME280;11033;47.490;11.116;2023-04-27T10:09:26;93241.75;;;15.43;64.09
21742;BME280;11033;47.490;11.116;2023-04-27T10:11:53;93238.44;;;15.23;63.59
21742;BME280;11033;47.490;11.116;2023-04-27T10:14:20;93243.97;;;16.14;62.32
21742;BME280;11033;47.490;11.116;2023-04-27T10:16:54;93239.59;;;16.93;61.01
21742;BME280;11033;47.490;11.116;2023-04-27T10:19:21;93244.72;;;16.22;61.52
21742;BME280;11033;47.490;11.116;2023-04-27T10:24:36;93240.00;;;15.31;63.91
21742;BME280;11033;47.490;11.116;2023-04-27T10:27:03;93235.91;;;15.35;63.23
21742;BME280;11033;47.490;11.116;2023-04-27T10:32:31;93227.53;;;17.32;56.83
21742;BME280;11033;47.490;11.116;2023-04-27T10:35:04;93219.09;;;17.35;57.31
21742;BME280;11033;47.490;11.116;2023-04-27T10:37:39;93218.78;;;17.55;54.44
21742;BME280;11033;47.490;11.116;2023-04-27T10:40:10;93215.94;;;17.92;55.99
21742;BME280;11033;47.490;11.116;2023-04-27T10:42:39;93217.03;;;18.43;55.61
21742;BME280;11033;47.490;11.116;2023-04-27T10:45:05;93214.84;;;18.40;55.89
21742;BME280;11033;47.490;11.116;2023-04-27T10:47:41;93218.25;;;18.23;54.89
21742;BME280;11033;47.490;11.116;2023-04-27T10:50:08;93206.66;;;18.06;53.33
21742;BME280;11033;47.490;11.116;2023-04-27T10:52:39;93202.00;;;18.77;54.60
21742;BME280;11033;47.490;11.116;2023-04-27T10:55:14;93202.41;;;19.14;52.60
21742;BME280;11033;47.490;11.116;2023-04-27T10:57:50;93203.94;;;18.81;51.74
21742;BME280;11033;47.490;11.116;2023-04-27T11:03:13;93210.38;;;16.87;56.24
21742;BME280;11033;47.490;11.116;2023-04-27T11:05:40;93198.09;;;17.69;56.30
21742;BME280;11033;47.490;11.116;2023-04-27T11:08:08;93200.38;;;17.65;54.80
21742;BME280;11033;47.490;11.116;2023-04-27T11:10:37;93203.78;;;17.72;55.18
21742;BME280;11033;47.490;11.116;2023-04-27T11:13:13;93213.53;;;17.25;56.49
21742;BME280;11033;47.490;11.116;2023-04-27T11:15:53;93202.28;;;17.77;57.41
21742;BME280;11033;47.490;11.116;2023-04-27T11:18:20;93216.28;;;17.19;57.89
21742;BME280;11033;47.490;11.116;2023-04-27T11:20:53;93224.00;;;16.30;57.69
21742;BME280;11033;47.490;11.116;2023-04-27T11:23:37;93224.81;;;16.31;58.42
21742;BME280;11033;47.490;11.116;2023-04-27T11:26:14;93215.22;;;17.08;56.13
21742;BME280;11033;47.490;11.116;2023-04-27T11:28:44;93217.78;;;18.03;54.62
21742;BME280;11033;47.490;11.116;2023-04-27T11:31:10;93208.75;;;17.81;54.28
21742;BME280;11033;47.490;11.116;2023-04-27T11:33:36;93209.22;;;19.21;54.59
21742;BME280;11033;47.490;11.116;2023-04-27T11:36:14;93210.22;;;19.99;51.55
21742;BME280;11033;47.490;11.116;2023-04-27T11:38:41;93203.47;;;20.13;51.14
21742;BME280;11033;47.490;11.116;2023-04-27T11:41:06;93204.72;;;18.93;51.15
21742;BME280;11033;47.490;11.116;2023-04-27T11:43:32;93202.41;;;19.76;50.68
21742;BME280;11033;47.490;11.116;2023-04-27T11:46:01;93201.72;;;20.19;49.45
21742;BME280;11033;47.490;11.116;2023-04-27T11:48:27;93206.47;;;20.77;48.53
21742;BME280;11033;47.490;11.116;2023-04-27T11:50:53;93206.78;;;20.59;47.22
21742;BME280;11033;47.490;11.116;2023-04-27T11:53:37;93211.72;;;20.67;46.13
21742;BME280;11033;47.490;11.116;2023-04-27T11:56:05;93194.91;;;20.94;45.73
21742;BME280;11033;47.490;11.116;2023-04-27T11:58:36;93202.47;;;21.02;45.50
21742;BME280;11033;47.490;11.116;2023-04-27T12:01:05;93201.03;;;21.75;44.25
21742;BME280;11033;47.490;11.116;2023-04-27T12:03:30;93201.00;;;22.07;44.93
21742;BME280;11033;47.490;11.116;2023-04-27T12:05:56;93200.50;;;21.78;42.01
21742;BME280;11033;47.490;11.116;2023-04-27T12:08:22;93196.41;;;22.97;42.51
21742;BME280;11033;47.490;11.116;2023-04-27T12:10:47;93198.06;;;23.18;41.13
21742;BME280;11033;47.490;11.116;2023-04-27T12:13:13;93194.50;;;22.35;43.23
21742;BME280;11033;47.490;11.116;2023-04-27T12:15:39;93197.53;;;22.54;41.98
21742;BME280;11033;47.490;11.116;2023-04-27T12:18:04;93203.09;;;20.21;44.95
21742;BME280;11033;47.490;11.116;2023-04-27T12:20:30;93197.06;;;21.82;44.77
21742;BME280;11033;47.490;11.116;2023-04-27T12:22:56;93202.50;;;22.30;42.78
21742;BME280;11033;47.490;11.116;2023-04-27T12:25:22;93203.19;;;22.57;41.16
21742;BME280;11033;47.490;11.116;2023-04-27T12:27:47;93201.44;;;22.31;42.46
21742;BME280;11033;47.490;11.116;2023-04-27T12:30:13;93196.28;;;23.59;39.43
21742;BME280;11033;47.490;11.116;2023-04-27T12:32:39;93204.34;;;24.30;40.53
21742;BME280;11033;47.490;11.116;2023-04-27T12:35:06;93200.84;;;23.84;40.93
21742;BME280;11033;47.490;11.116;2023-04-27T12:37:31;93201.91;;;23.93;39.37
21742;BME280;11033;47.490;11.116;2023-04-27T12:39:57;93190.84;;;24.46;39.64
21742;BME280;11033;47.490;11.116;2023-04-27T12:42:22;93200.03;;;24.14;40.88
21742;BME280;11033;47.490;11.116;2023-04-27T12:44:49;93200.28;;;23.52;39.77
21742;BME280;11033;47.490;11.116;2023-04-27T12:47:19;93202.63;;;22.55;40.43
21742;BME280;11033;47.490;11.116;2023-04-27T12:49:45;93191.03;;;23.07;40.41
21742;BME280;11033;47.490;11.116;2023-04-27T12:52:11;93190.06;;;22.66;40.14
21742;BME280;11033;47.490;11.116;2023-04-27T12:54:36;93180.03;;;22.46;42.32
21742;BME280;11033;47.490;11.116;2023-04-27T12:57:02;93178.03;;;22.21;42.62
21742;BME280;11033;47.490;11.116;2023-04-27T12:59:33;93169.63;;;21.38;44.45
21742;BME280;11033;47.490;11.116;2023-04-27T13:02:00;93182.06;;;20.96;44.27
21742;BME280;11033;47.490;11.116;2023-04-27T13:04:26;93173.03;;;20.80;44.65
21742;BME280;11033;47.490;11.116;2023-04-27T13:06:52;93181.41;;;20.83;44.98
21742;BME280;11033;47.490;11.116;2023-04-27T13:09:17;93186.75;;;21.37;44.32
21742;BME280;11033;47.490;11.116;2023-04-27T13:11:42;93185.19;;;20.87;45.77
21742;BME280;11033;47.490;11.116;2023-04-27T13:14:08;93177.84;;;20.56;47.05